createdAt,value
2023-05-22T00:01:21.409Z,96.29
2023-05-22T00:03:48.828Z,96.27
2023-05-22T00:06:15.616Z,95.72
2023-05-22T00:08:42.456Z,96.43
2023-05-22T00:11:09.417Z,96.17
2023-05-22T00:13:36.376Z,95.39
2023-05-22T00:16:03.592Z,95.21
2023-05-22T00:18:30.553Z,96.03
2023-05-22T00:20:58.196Z,96.37
2023-05-22T00:23:26.085Z,97.19
2023-05-22T00:25:52.973Z,96.37
2023-05-22T00:28:19.970Z,97.16
2023-05-22T00:30:46.441Z,96.58
2023-05-22T00:33:13.003Z,96.36
2023-05-22T00:35:39.495Z,96.78
2023-05-22T00:38:06.382Z,97.25
2023-05-22T00:40:32.936Z,97.29
2023-05-22T00:42:59.381Z,97.72
2023-05-22T00:45:25.943Z,97.50
2023-05-22T00:47:52.454Z,98.70
2023-05-22T00:50:20.461Z,98.52
2023-05-22T00:52:47.246Z,98.27
2023-05-22T00:55:15.818Z,98.33
2023-05-22T00:57:43.066Z,98.11
2023-05-22T01:00:13.319Z,97.91
2023-05-22T01:02:43.000Z,98.44
2023-05-22T01:05:13.201Z,98.11
2023-05-22T01:07:40.247Z,98.40
2023-05-22T01:10:07.527Z,99.23
2023-05-22T01:12:59.106Z,98.91
2023-05-22T01:15:45.742Z,99.15
2023-05-22T01:19:00.833Z,99.05
2023-05-22T01:21:58.932Z,99.17
2023-05-22T01:24:52.086Z,99.27
2023-05-22T01:27:37.365Z,99.90
2023-05-22T01:30:06.525Z,99.85
2023-05-22T01:32:35.143Z,99.75
2023-05-22T01:35:03.459Z,100.00
2023-05-22T01:37:31.038Z,99.79
2023-05-22T01:39:58.359Z,100.00
2023-05-22T01:42:24.989Z,99.99
2023-05-22T01:44:51.649Z,99.67
2023-05-22T01:47:18.184Z,99.55
2023-05-22T01:49:47.200Z,99.27
2023-05-22T01:52:24.077Z,99.34
2023-05-22T01:55:05.090Z,99.24
2023-05-22T01:57:38.992Z,99.10
2023-05-22T02:00:15.145Z,99.36
2023-05-22T02:03:08.417Z,99.65
2023-05-22T02:05:38.804Z,99.78
2023-05-22T02:08:06.818Z,99.61
2023-05-22T02:10:35.168Z,100.00
2023-05-22T02:13:01.963Z,100.00
2023-05-22T02:15:28.751Z,100.00
2023-05-22T02:17:55.529Z,100.00
2023-05-22T02:20:22.167Z,100.00
2023-05-22T02:22:48.825Z,100.00
2023-05-22T02:25:17.269Z,100.00
2023-05-22T02:27:47.098Z,100.00
2023-05-22T02:30:14.454Z,100.00
2023-05-22T02:32:41.770Z,100.00
2023-05-22T02:35:08.922Z,100.00
2023-05-22T02:37:35.951Z,100.00
2023-05-22T02:40:02.656Z,100.00
2023-05-22T02:42:29.543Z,100.00
2023-05-22T02:44:56.122Z,100.00
2023-05-22T02:47:22.622Z,100.00
2023-05-22T02:49:49.200Z,100.00
2023-05-22T02:52:15.734Z,100.00
2023-05-22T02:54:42.251Z,100.00
2023-05-22T02:57:08.751Z,100.00
2023-05-22T02:59:36.850Z,100.00
2023-05-22T03:02:03.835Z,100.00
2023-05-22T03:04:30.459Z,100.00
2023-05-22T03:06:56.922Z,100.00
2023-05-22T03:09:23.466Z,100.00
2023-05-22T03:11:49.947Z,100.00
2023-05-22T03:14:16.390Z,100.00
2023-05-22T03:16:42.979Z,100.00
2023-05-22T03:19:11.184Z,100.00
2023-05-22T03:21:38.605Z,100.00
2023-05-22T03:24:05.875Z,100.00
2023-05-22T03:26:32.382Z,100.00
2023-05-22T03:28:59.015Z,100.00
2023-05-22T03:31:27.138Z,100.00
2023-05-22T03:33:53.781Z,100.00
2023-05-22T03:36:21.382Z,100.00
2023-05-22T03:38:47.876Z,100.00
2023-05-22T03:41:14.489Z,100.00
2023-05-22T03:43:42.720Z,100.00
2023-05-22T03:46:11.356Z,100.00
2023-05-22T03:48:39.151Z,100.00
2023-05-22T03:51:06.280Z,100.00
2023-05-22T03:53:32.794Z,100.00
2023-05-22T03:55:59.384Z,100.00
2023-05-22T03:58:26.136Z,100.00
2023-05-22T04:00:58.597Z,100.00
2023-05-22T04:03:25.153Z,100.00
2023-05-22T04:05:51.742Z,100.00
2023-05-22T04:08:18.628Z,100.00
2023-05-22T04:10:46.662Z,100.00
2023-05-22T04:13:13.747Z,100.00
2023-05-22T04:15:41.716Z,100.00
2023-05-22T04:18:08.546Z,100.00
2023-05-22T04:20:35.234Z,100.00
2023-05-22T04:23:01.887Z,100.00
2023-05-22T04:25:28.380Z,100.00
2023-05-22T04:27:54.963Z,100.00
2023-05-22T04:30:22.087Z,100.00
2023-05-22T04:32:48.617Z,100.00
2023-05-22T04:35:18.653Z,100.00
2023-05-22T04:37:48.036Z,100.00
2023-05-22T04:40:15.319Z,100.00
2023-05-22T04:42:43.078Z,100.00
2023-05-22T04:45:09.992Z,100.00
2023-05-22T04:47:38.247Z,100.00
2023-05-22T04:50:06.053Z,100.00
2023-05-22T04:52:32.635Z,100.00
2023-05-22T04:55:00.876Z,100.00
2023-05-22T04:57:28.072Z,100.00
2023-05-22T04:59:57.069Z,100.00
2023-05-22T05:02:23.576Z,100.00
2023-05-22T05:04:50.237Z,100.00
2023-05-22T05:07:17.706Z,100.00
2023-05-22T05:09:44.666Z,100.00
2023-05-22T05:12:11.367Z,100.00
2023-05-22T05:14:37.901Z,100.00
2023-05-22T05:17:04.685Z,100.00
2023-05-22T05:19:31.721Z,100.00
2023-05-22T05:21:58.628Z,100.00
2023-05-22T05:24:25.191Z,100.00
2023-05-22T05:26:51.803Z,100.00
2023-05-22T05:29:18.527Z,100.00
2023-05-22T05:31:45.027Z,100.00
2023-05-22T05:34:12.333Z,100.00
2023-05-22T05:36:38.832Z,100.00
2023-05-22T05:39:05.310Z,100.00
2023-05-22T05:41:31.785Z,100.00
2023-05-22T05:44:00.109Z,100.00
2023-05-22T05:46:26.769Z,100.00
2023-05-22T05:48:53.358Z,100.00
2023-05-22T05:51:21.358Z,100.00
2023-05-22T05:53:47.818Z,100.00
2023-05-22T05:56:14.987Z,97.95
2023-05-22T05:58:41.512Z,95.52
2023-05-22T06:01:08.396Z,93.27
2023-05-22T06:03:35.380Z,90.96
2023-05-22T06:06:03.428Z,89.22
2023-05-22T06:08:32.334Z,88.28
2023-05-22T06:10:58.914Z,86.84
2023-05-22T06:13:25.398Z,89.02
2023-05-22T06:15:52.023Z,90.51
2023-05-22T06:18:18.691Z,90.97
2023-05-22T06:20:45.165Z,93.98
2023-05-22T06:23:11.676Z,95.17
2023-05-22T06:25:39.850Z,96.70
2023-05-22T06:28:06.492Z,98.22
2023-05-22T06:33:05.328Z,98.21
2023-05-22T06:35:32.602Z,99.04
2023-05-22T06:37:59.232Z,99.04
2023-05-22T06:40:25.898Z,99.04
2023-05-22T06:42:52.839Z,100.00
2023-05-22T06:45:19.959Z,99.99
2023-05-22T06:47:46.889Z,99.39
2023-05-22T06:50:13.438Z,99.60
2023-05-22T06:52:40.013Z,98.36
2023-05-22T06:55:07.807Z,99.02
2023-05-22T06:57:34.734Z,99.29
2023-05-22T07:00:01.359Z,99.20
2023-05-22T07:02:27.917Z,99.06
2023-05-22T07:04:54.518Z,97.58
2023-05-22T07:07:21.280Z,97.89
2023-05-22T07:09:47.896Z,98.12
2023-05-22T07:12:14.927Z,96.97
2023-05-22T07:14:42.226Z,98.67
2023-05-22T07:17:08.868Z,98.23
2023-05-22T07:19:35.816Z,96.86
2023-05-22T07:22:02.475Z,93.87
2023-05-22T07:24:29.127Z,93.67
2023-05-22T07:26:55.715Z,94.04
2023-05-22T07:29:23.287Z,95.29
2023-05-22T07:31:50.018Z,93.78
2023-05-22T07:34:17.394Z,95.01
2023-05-22T07:36:44.001Z,93.16
2023-05-22T07:39:10.468Z,93.26
2023-05-22T07:41:37.067Z,92.75
2023-05-22T07:44:03.565Z,91.99
2023-05-22T07:46:30.121Z,92.35
2023-05-22T07:48:56.785Z,91.38
2023-05-22T07:51:23.290Z,90.90
2023-05-22T07:53:49.866Z,91.16
2023-05-22T07:56:17.647Z,91.37
2023-05-22T07:58:44.380Z,89.79
2023-05-22T08:01:11.203Z,88.88
2023-05-22T08:03:37.957Z,87.75
2023-05-22T08:06:04.791Z,87.95
2023-05-22T08:08:32.120Z,88.50
2023-05-22T08:13:28.163Z,87.19
2023-05-22T08:16:00.626Z,87.32
2023-05-22T08:18:29.089Z,86.29
2023-05-22T08:20:56.291Z,87.18
2023-05-22T08:23:22.992Z,87.04
2023-05-22T08:25:50.445Z,87.86
2023-05-22T08:28:17.289Z,84.65
2023-05-22T08:30:44.074Z,84.63
2023-05-22T08:33:11.799Z,87.12
2023-05-22T08:35:38.508Z,84.90
2023-05-22T08:38:04.990Z,82.97
2023-05-22T08:40:40.101Z,84.43
2023-05-22T08:43:07.677Z,83.90
2023-05-22T08:45:34.680Z,84.02
2023-05-22T08:48:06.521Z,81.81
2023-05-22T08:50:37.212Z,84.13
2023-05-22T08:53:08.161Z,82.72
2023-05-22T08:55:35.022Z,81.73
2023-05-22T08:58:02.112Z,81.47
2023-05-22T09:00:29.715Z,78.97
2023-05-22T09:02:56.414Z,78.01
2023-05-22T09:05:26.829Z,78.67
2023-05-22T09:07:56.635Z,79.19
2023-05-22T09:10:25.631Z,78.72
2023-05-22T09:13:09.405Z,77.23
2023-05-22T09:15:37.084Z,77.65
2023-05-22T09:18:05.379Z,79.94
2023-05-22T09:20:36.543Z,75.36
2023-05-22T09:23:14.640Z,74.21
2023-05-22T09:25:42.729Z,75.00
2023-05-22T09:28:11.257Z,77.04
2023-05-22T09:30:37.929Z,74.25
2023-05-22T09:33:05.151Z,74.17
2023-05-22T09:35:32.690Z,75.23
2023-05-22T09:37:59.287Z,74.16
2023-05-22T09:40:27.639Z,74.28
2023-05-22T09:42:54.193Z,74.01
2023-05-22T09:45:26.483Z,73.01
2023-05-22T09:47:53.148Z,73.65
2023-05-22T09:50:19.823Z,72.96
2023-05-22T09:52:48.258Z,70.63
2023-05-22T09:55:16.290Z,70.20
2023-05-22T09:57:44.646Z,66.64
2023-05-22T10:00:18.435Z,69.90
2023-05-22T10:02:47.622Z,70.84
2023-05-22T10:05:21.414Z,70.87
2023-05-22T10:07:56.136Z,69.26
2023-05-22T10:10:26.071Z,69.40
2023-05-22T10:13:01.935Z,67.71
2023-05-22T10:15:28.878Z,68.93
2023-05-22T10:17:56.221Z,68.60
2023-05-22T10:20:23.473Z,66.17
2023-05-22T10:22:50.551Z,66.41
2023-05-22T10:25:23.606Z,65.20
2023-05-22T10:27:52.998Z,64.21
2023-05-22T10:30:25.770Z,66.56
2023-05-22T10:33:12.325Z,67.27
2023-05-22T10:35:55.756Z,64.75
2023-05-22T10:38:30.936Z,64.07
2023-05-22T10:40:57.928Z,63.92
2023-05-22T10:43:25.257Z,64.20
2023-05-22T10:46:02.465Z,63.17
2023-05-22T10:48:36.843Z,62.47
2023-05-22T10:51:04.511Z,63.20
2023-05-22T10:53:35.224Z,61.36
2023-05-22T10:56:16.064Z,62.64
2023-05-22T10:58:45.787Z,61.50
2023-05-22T11:01:20.379Z,61.89
2023-05-22T11:04:01.311Z,61.52
2023-05-22T11:06:37.305Z,61.43
2023-05-22T11:09:29.418Z,62.48
2023-05-22T11:12:16.385Z,63.06
2023-05-22T11:14:47.698Z,63.06
2023-05-22T11:17:18.861Z,60.91
2023-05-22T11:19:57.030Z,61.98
2023-05-22T11:22:23.670Z,60.11
2023-05-22T11:24:50.209Z,59.55
2023-05-22T11:27:17.101Z,60.10
2023-05-22T11:29:44.574Z,60.22
2023-05-22T11:32:16.632Z,60.48
2023-05-22T11:34:43.400Z,59.26
2023-05-22T11:37:10.772Z,57.89
2023-05-22T11:39:37.251Z,58.00
2023-05-22T11:42:05.048Z,58.06
2023-05-22T11:44:31.515Z,57.99
2023-05-22T11:46:58.056Z,57.96
2023-05-22T11:49:25.468Z,56.50
2023-05-22T11:51:52.457Z,58.93
2023-05-22T11:54:19.143Z,56.93
2023-05-22T11:56:46.073Z,56.23
2023-05-22T11:59:12.552Z,55.00
2023-05-22T12:01:39.063Z,54.05
2023-05-22T12:04:06.010Z,54.34
2023-05-22T12:06:33.529Z,57.94
2023-05-22T12:09:01.357Z,52.83
2023-05-22T12:11:28.135Z,52.70
2023-05-22T12:14:01.894Z,52.50
2023-05-22T12:16:28.459Z,55.20
2023-05-22T12:18:55.062Z,54.24
2023-05-22T12:21:21.879Z,56.55
2023-05-22T12:23:50.099Z,53.47
2023-05-22T12:26:17.232Z,53.98
2023-05-22T12:28:44.292Z,54.25
2023-05-22T12:31:10.829Z,53.81
2023-05-22T12:33:39.718Z,54.46
2023-05-22T12:36:10.355Z,53.85
2023-05-22T12:38:38.268Z,53.42
2023-05-22T12:41:04.900Z,53.26
2023-05-22T12:43:31.416Z,54.39
2023-05-22T12:45:58.911Z,54.98
2023-05-22T12:48:26.406Z,54.90
2023-05-22T12:50:53.391Z,55.46
2023-05-22T12:53:19.897Z,55.27
2023-05-22T12:55:46.386Z,54.42
2023-05-22T12:58:13.023Z,54.93
2023-05-22T13:00:39.641Z,53.82
2023-05-22T13:03:06.644Z,56.16
2023-05-22T13:05:33.190Z,57.48
2023-05-22T13:07:59.674Z,59.51
2023-05-22T13:10:26.145Z,61.10
2023-05-22T13:12:52.828Z,62.06
2023-05-22T13:15:19.444Z,62.50
2023-05-22T13:17:46.042Z,62.77
2023-05-22T13:20:13.380Z,61.57
2023-05-22T13:22:41.247Z,61.37
2023-05-22T13:25:08.157Z,60.37
2023-05-22T13:27:34.718Z,60.23
2023-05-22T13:30:01.243Z,59.94
2023-05-22T13:32:27.833Z,59.04
2023-05-22T13:34:54.373Z,58.36
2023-05-22T13:37:21.147Z,58.30
2023-05-22T13:39:47.755Z,56.44
2023-05-22T13:42:14.526Z,56.96
2023-05-22T13:44:41.114Z,58.41
2023-05-22T13:47:07.711Z,58.91
2023-05-22T13:49:34.376Z,57.84
2023-05-22T13:52:01.059Z,58.26
2023-05-22T13:54:27.663Z,55.33
2023-05-22T13:56:54.256Z,54.99
2023-05-22T13:59:20.947Z,53.90
2023-05-22T14:01:47.406Z,55.55
2023-05-22T14:04:14.288Z,56.32
2023-05-22T14:06:40.972Z,56.18
2023-05-22T14:09:09.317Z,57.42
2023-05-22T14:11:35.878Z,57.01
2023-05-22T14:14:02.462Z,56.93
2023-05-22T14:16:29.031Z,57.04
2023-05-22T14:18:55.802Z,58.31
2023-05-22T14:21:22.352Z,57.60
2023-05-22T14:23:48.832Z,56.95
2023-05-22T14:26:15.443Z,57.04
2023-05-22T14:28:42.308Z,58.17
2023-05-22T14:31:09.075Z,58.29
2023-05-22T14:33:35.884Z,58.73
2023-05-22T14:36:02.819Z,58.33
2023-05-22T14:38:33.761Z,57.75
2023-05-22T14:41:03.531Z,58.56
2023-05-22T14:43:30.140Z,58.25
2023-05-22T14:45:59.477Z,57.63
2023-05-22T14:48:26.191Z,57.91
2023-05-22T14:50:56.253Z,56.59
2023-05-22T14:53:23.231Z,57.57
2023-05-22T14:55:49.827Z,57.12
2023-05-22T14:58:16.489Z,57.71
2023-05-22T15:00:45.112Z,56.57
2023-05-22T15:03:12.835Z,57.36
2023-05-22T15:05:39.608Z,57.68
2023-05-22T15:08:06.359Z,56.62
2023-05-22T15:10:32.909Z,55.65
2023-05-22T15:12:59.405Z,56.15
2023-05-22T15:15:25.992Z,55.47
2023-05-22T15:17:52.639Z,56.36
2023-05-22T15:20:19.342Z,55.43
2023-05-22T15:22:45.846Z,56.00
2023-05-22T15:25:15.028Z,54.87
2023-05-22T15:27:42.189Z,55.52
2023-05-22T15:30:12.367Z,53.26
2023-05-22T15:32:39.352Z,53.49
2023-05-22T15:35:07.027Z,54.71
2023-05-22T15:37:34.206Z,54.50
2023-05-22T15:40:05.282Z,54.97
2023-05-22T15:42:31.950Z,53.53
2023-05-22T15:45:00.713Z,53.32
2023-05-22T15:47:27.382Z,52.59
2023-05-22T15:49:54.033Z,52.91
2023-05-22T15:52:22.582Z,53.01
2023-05-22T15:54:49.220Z,52.56
2023-05-22T15:57:16.761Z,53.07
2023-05-22T15:59:43.381Z,52.57
2023-05-22T16:02:09.871Z,52.26
2023-05-22T16:04:36.561Z,52.58
2023-05-22T16:07:03.044Z,53.74
2023-05-22T16:09:31.351Z,54.32
2023-05-22T16:11:59.046Z,53.51
2023-05-22T16:14:25.572Z,54.06
2023-05-22T16:16:55.231Z,54.60
2023-05-22T16:19:21.788Z,54.72
2023-05-22T16:21:48.340Z,54.19
2023-05-22T16:24:14.792Z,54.00
2023-05-22T16:26:41.321Z,54.19
2023-05-22T16:29:09.002Z,54.52
2023-05-22T16:31:35.769Z,54.67
2023-05-22T16:34:03.407Z,54.85
2023-05-22T16:36:30.038Z,55.19
2023-05-22T16:38:56.762Z,55.58
2023-05-22T16:41:23.553Z,56.65
2023-05-22T16:43:50.655Z,55.69
2023-05-22T16:46:18.533Z,54.93
2023-05-22T16:48:45.059Z,54.91
2023-05-22T16:51:11.665Z,54.57
2023-05-22T16:53:40.615Z,55.62
2023-05-22T16:56:07.373Z,54.80
2023-05-22T16:58:34.038Z,54.05
2023-05-22T17:01:00.668Z,53.57
2023-05-22T17:03:27.308Z,52.76
2023-05-22T17:05:54.064Z,53.64
2023-05-22T17:08:20.545Z,54.08
2023-05-22T17:10:47.912Z,54.29
2023-05-22T17:13:20.720Z,53.80
2023-05-22T17:15:48.751Z,53.96
2023-05-22T17:18:19.892Z,53.91
2023-05-22T17:20:47.639Z,54.28
2023-05-22T17:23:14.319Z,54.65
2023-05-22T17:25:41.540Z,54.55
2023-05-22T17:28:08.967Z,53.70
2023-05-22T17:30:35.736Z,54.97
2023-05-22T17:33:03.824Z,55.53
2023-05-22T17:35:30.709Z,56.42
2023-05-22T17:37:57.275Z,56.58
2023-05-22T17:40:29.574Z,57.22
2023-05-22T17:43:03.433Z,58.32
2023-05-22T17:45:30.287Z,58.14
2023-05-22T17:47:56.796Z,58.83
2023-05-22T17:50:23.409Z,58.91
2023-05-22T17:52:49.913Z,58.78
2023-05-22T17:55:16.456Z,59.78
2023-05-22T17:57:43.385Z,60.25
2023-05-22T18:00:10.911Z,59.84
2023-05-22T18:02:37.697Z,59.84
2023-05-22T18:05:05.715Z,60.89
2023-05-22T18:07:32.595Z,61.69
2023-05-22T18:09:59.073Z,61.74
2023-05-22T18:12:31.812Z,61.93
2023-05-22T18:14:58.996Z,61.70
2023-05-22T18:17:25.636Z,62.36
2023-05-22T18:19:52.163Z,63.08
2023-05-22T18:22:18.750Z,63.75
2023-05-22T18:24:45.444Z,64.04
2023-05-22T18:27:12.027Z,64.46
2023-05-22T18:29:40.029Z,64.77
2023-05-22T18:32:09.444Z,64.13
2023-05-22T18:34:37.995Z,65.26
2023-05-22T18:37:05.404Z,65.45
2023-05-22T18:39:31.987Z,65.23
2023-05-22T18:41:58.718Z,65.74
2023-05-22T18:44:25.292Z,65.80
2023-05-22T18:46:51.846Z,65.95
2023-05-22T18:49:19.030Z,65.92
2023-05-22T18:51:45.982Z,65.94
2023-05-22T18:54:12.536Z,66.30
2023-05-22T18:56:39.333Z,66.67
2023-05-22T18:59:06.027Z,66.86
2023-05-22T19:01:32.741Z,67.36
2023-05-22T19:04:01.336Z,66.97
2023-05-22T19:06:28.967Z,67.25
2023-05-22T19:08:55.462Z,67.50
2023-05-22T19:11:22.420Z,67.83
2023-05-22T19:13:48.886Z,68.44
2023-05-22T19:16:15.635Z,68.28
2023-05-22T19:18:42.378Z,68.78
2023-05-22T19:21:09.318Z,68.87
2023-05-22T19:23:36.687Z,69.56
2023-05-22T19:26:03.152Z,69.32
2023-05-22T19:28:33.011Z,69.96
2023-05-22T19:31:01.050Z,70.65
2023-05-22T19:33:27.643Z,70.95
2023-05-22T19:35:54.192Z,70.99
2023-05-22T19:38:20.957Z,71.07
2023-05-22T19:40:47.510Z,71.51
2023-05-22T19:43:14.532Z,72.32
2023-05-22T19:45:41.182Z,72.42
2023-05-22T19:48:07.921Z,72.83
2023-05-22T19:50:35.540Z,73.33
2023-05-22T19:53:02.117Z,73.44
2023-05-22T19:55:28.652Z,74.25
2023-05-22T19:57:55.175Z,74.28
2023-05-22T20:00:21.814Z,74.46
2023-05-22T20:02:48.552Z,74.75
2023-05-22T20:05:15.201Z,75.05
2023-05-22T20:07:43.224Z,75.15
2023-05-22T20:10:10.928Z,75.18
2023-05-22T20:12:38.513Z,74.88
2023-05-22T20:15:06.981Z,74.77
2023-05-22T20:17:34.144Z,74.61
2023-05-22T20:20:00.740Z,74.21
2023-05-22T20:22:27.958Z,74.82
2023-05-22T20:24:54.472Z,74.54
2023-05-22T20:27:21.205Z,74.51
2023-05-22T20:29:49.940Z,74.38
2023-05-22T20:32:16.982Z,74.75
2023-05-22T20:34:45.171Z,75.12
2023-05-22T20:37:13.521Z,75.37
2023-05-22T20:39:43.207Z,75.66
2023-05-22T20:42:11.635Z,75.23
2023-05-22T20:44:38.295Z,75.69
2023-05-22T20:47:08.146Z,75.43
2023-05-22T20:49:34.902Z,74.32
2023-05-22T20:52:02.777Z,73.71
2023-05-22T20:54:34.044Z,73.05
2023-05-22T20:57:03.712Z,73.41
2023-05-22T20:59:30.223Z,73.82
2023-05-22T21:01:57.823Z,73.85
2023-05-22T21:04:26.631Z,73.59
2023-05-22T21:06:53.213Z,73.75
2023-05-22T21:09:19.720Z,73.84
2023-05-22T21:11:46.233Z,74.09
2023-05-22T21:14:12.766Z,74.38
2023-05-22T21:16:40.163Z,74.62
2023-05-22T21:19:07.354Z,74.85
2023-05-22T21:21:35.689Z,75.65
2023-05-22T21:24:02.230Z,75.12
2023-05-22T21:26:28.697Z,75.73
2023-05-22T21:28:55.379Z,75.39
2023-05-22T21:31:21.865Z,75.96
2023-05-22T21:33:49.110Z,76.14
2023-05-22T21:36:15.898Z,75.95
2023-05-22T21:38:42.432Z,76.03
2023-05-22T21:41:08.984Z,76.54
2023-05-22T21:43:35.894Z,76.59
2023-05-22T21:46:02.409Z,77.12
2023-05-22T21:48:28.951Z,76.85
2023-05-22T21:50:55.782Z,77.39
2023-05-22T21:53:22.577Z,77.53
2023-05-22T21:55:49.143Z,77.54
2023-05-22T21:58:17.414Z,77.67
2023-05-22T22:00:43.926Z,77.80
2023-05-22T22:03:10.615Z,77.53
2023-05-22T22:05:37.181Z,77.24
2023-05-22T22:08:04.924Z,77.69
2023-05-22T22:10:33.551Z,77.59
2023-05-22T22:13:01.306Z,77.53
2023-05-22T22:15:27.899Z,77.13
2023-05-22T22:17:59.543Z,77.64
2023-05-22T22:20:42.514Z,77.78
2023-05-22T22:23:11.638Z,77.39
2023-05-22T22:25:39.261Z,77.74
2023-05-22T22:28:07.223Z,77.47
2023-05-22T22:30:33.943Z,77.73
2023-05-22T22:33:00.637Z,77.69
2023-05-22T22:35:28.020Z,78.03
2023-05-22T22:37:54.515Z,78.19
2023-05-22T22:40:21.022Z,78.19
2023-05-22T22:42:47.498Z,78.73
2023-05-22T22:45:14.781Z,78.79
2023-05-22T22:47:41.412Z,78.65
2023-05-22T22:50:09.914Z,78.63
2023-05-22T22:52:37.830Z,79.21
2023-05-22T22:55:06.241Z,79.08
2023-05-22T22:57:32.842Z,78.64
2023-05-22T23:00:02.397Z,79.17
2023-05-22T23:02:28.968Z,79.12
2023-05-22T23:04:55.855Z,79.12
2023-05-22T23:07:24.079Z,79.41
2023-05-22T23:09:50.668Z,79.16
2023-05-22T23:12:17.232Z,79.38
2023-05-22T23:14:44.850Z,79.76
2023-05-22T23:17:11.354Z,79.79
2023-05-22T23:19:37.799Z,79.61
2023-05-22T23:22:04.448Z,79.56
2023-05-22T23:24:31.048Z,80.09
2023-05-22T23:26:57.573Z,79.71
2023-05-22T23:29:24.061Z,79.60
2023-05-22T23:31:50.779Z,79.66
2023-05-22T23:34:17.324Z,79.85
2023-05-22T23:36:43.773Z,80.03
2023-05-22T23:39:10.574Z,80.32
2023-05-22T23:41:37.098Z,80.75
2023-05-22T23:44:04.382Z,80.85
2023-05-22T23:46:31.059Z,81.02
2023-05-22T23:48:57.508Z,80.96
2023-05-22T23:51:24.112Z,80.56
2023-05-22T23:53:50.741Z,80.81
2023-05-22T23:56:17.204Z,81.31
2023-05-22T23:58:43.760Z,81.37
